sensor_id;sensor_type;location;lat;lon;timestamp;pressure;altitude;pressure_sealevel;temperature;humidity
16580;BME280;8402;51.466;6.806;2022-07-29T00:01:41;101300.97;;;22.31;44.95
16580;BME280;8402;51.466;6.806;2022-07-29T00:04:10;101288.31;;;22.30;45.38
16580;BME280;8402;51.466;6.806;2022-07-29T00:06:40;101281.94;;;22.25;45.44
16580;BME280;8402;51.466;6.806;2022-07-29T00:09:08;101279.56;;;22.24;45.34
16580;BME280;8402;51.466;6.806;2022-07-29T00:11:36;101284.69;;;22.22;45.69
16580;BME280;8402;51.466;6.806;2022-07-29T00:14:04;101282.28;;;22.20;45.73
16580;BME280;8402;51.466;6.806;2022-07-29T00:16:32;101279.13;;;22.18;45.83
16580;BME280;8402;51.466;6.806;2022-07-29T00:19:00;101280.69;;;22.16;45.71
16580;BME280;8402;51.466;6.806;2022-07-29T00:21:30;101271.53;;;22.08;46.13
16580;BME280;8402;51.466;6.806;2022-07-29T00:23:57;101279.34;;;22.06;46.46
16580;BME280;8402;51.466;6.806;2022-07-29T00:26:25;101273.09;;;22.09;46.50
16580;BME280;8402;51.466;6.806;2022-07-29T00:28:58;101265.13;;;22.04;46.31
16580;BME280;8402;51.466;6.806;2022-07-29T00:31:46;101261.16;;;22.02;46.56
16580;BME280;8402;51.466;6.806;2022-07-29T00:34:14;101256.44;;;22.02;46.30
16580;BME280;8402;51.466;6.806;2022-07-29T00:36:57;101252.88;;;22.05;46.60
16580;BME280;8402;51.466;6.806;2022-07-29T00:39:25;101235.13;;;22.06;46.39
16580;BME280;8402;51.466;6.806;2022-07-29T00:41:54;101242.25;;;22.07;46.75
16580;BME280;8402;51.466;6.806;2022-07-29T00:44:22;101242.59;;;22.02;46.55
16580;BME280;8402;51.466;6.806;2022-07-29T00:46:50;101231.13;;;22.00;46.56
16580;BME280;8402;51.466;6.806;2022-07-29T00:49:18;101227.94;;;21.98;46.00
16580;BME280;8402;51.466;6.806;2022-07-29T00:51:46;101227.22;;;22.01;46.33
16580;BME280;8402;51.466;6.806;2022-07-29T00:54:16;101215.78;;;22.06;46.69
16580;BME280;8402;51.466;6.806;2022-07-29T00:56:45;101213.03;;;22.06;46.52
16580;BME280;8402;51.466;6.806;2022-07-29T00:59:12;101208.28;;;22.03;46.49
16580;BME280;8402;51.466;6.806;2022-07-29T01:01:40;101200.72;;;22.00;46.47
16580;BME280;8402;51.466;6.806;2022-07-29T01:04:08;101201.47;;;21.93;46.55
16580;BME280;8402;51.466;6.806;2022-07-29T01:06:36;101193.91;;;21.87;47.03
16580;BME280;8402;51.466;6.806;2022-07-29T01:09:04;101189.13;;;21.84;46.96
16580;BME280;8402;51.466;6.806;2022-07-29T01:11:35;101199.38;;;21.80;46.76
16580;BME280;8402;51.466;6.806;2022-07-29T01:14:05;101206.47;;;21.81;47.15
16580;BME280;8402;51.466;6.806;2022-07-29T01:16:39;101199.38;;;21.80;46.88
16580;BME280;8402;51.466;6.806;2022-07-29T01:19:22;101204.84;;;21.76;47.12
16580;BME280;8402;51.466;6.806;2022-07-29T01:22:09;101206.41;;;21.74;47.07
16580;BME280;8402;51.466;6.806;2022-07-29T01:24:54;101205.56;;;21.69;47.36
16580;BME280;8402;51.466;6.806;2022-07-29T01:27:47;101202.31;;;21.60;48.21
16580;BME280;8402;51.466;6.806;2022-07-29T01:30:21;101200.72;;;21.59;47.23
16580;BME280;8402;51.466;6.806;2022-07-29T01:32:54;101191.97;;;21.54;47.28
16580;BME280;8402;51.466;6.806;2022-07-29T01:35:24;101195.50;;;21.51;47.49
16580;BME280;8402;51.466;6.806;2022-07-29T01:37:57;101184.00;;;21.45;47.85
16580;BME280;8402;51.466;6.806;2022-07-29T01:40:32;101187.84;;;21.37;47.77
16580;BME280;8402;51.466;6.806;2022-07-29T01:43:07;101191.75;;;21.36;48.17
16580;BME280;8402;51.466;6.806;2022-07-29T01:45:40;101194.13;;;21.34;47.88
16580;BME280;8402;51.466;6.806;2022-07-29T01:48:12;101192.59;;;21.36;47.71
16580;BME280;8402;51.466;6.806;2022-07-29T01:50:46;101185.91;;;21.41;48.32
16580;BME280;8402;51.466;6.806;2022-07-29T01:53:21;101179.28;;;21.46;48.16
16580;BME280;8402;51.466;6.806;2022-07-29T01:56:03;101176.13;;;21.47;47.55
16580;BME280;8402;51.466;6.806;2022-07-29T01:58:32;101186.41;;;21.50;47.92
16580;BME280;8402;51.466;6.806;2022-07-29T02:01:02;101194.38;;;21.55;48.31
16580;BME280;8402;51.466;6.806;2022-07-29T02:03:31;101181.78;;;21.58;47.40
16580;BME280;8402;51.466;6.806;2022-07-29T02:06:01;101185.34;;;21.62;47.72
16580;BME280;8402;51.466;6.806;2022-07-29T02:08:32;101170.34;;;21.59;47.23
16580;BME280;8402;51.466;6.806;2022-07-29T02:11:02;101169.56;;;21.59;47.48
16580;BME280;8402;51.466;6.806;2022-07-29T02:13:32;101172.28;;;21.55;47.56
16580;BME280;8402;51.466;6.806;2022-07-29T02:16:05;101184.91;;;21.56;48.09
16580;BME280;8402;51.466;6.806;2022-07-29T02:18:36;101187.34;;;21.61;47.60
16580;BME280;8402;51.466;6.806;2022-07-29T02:21:04;101170.75;;;21.61;47.64
16580;BME280;8402;51.466;6.806;2022-07-29T02:23:40;101170.69;;;21.54;47.65
16580;BME280;8402;51.466;6.806;2022-07-29T02:26:17;101174.53;;;21.46;48.15
16580;BME280;8402;51.466;6.806;2022-07-29T02:28:47;101171.38;;;21.44;48.02
16580;BME280;8402;51.466;6.806;2022-07-29T02:31:20;101172.53;;;21.43;48.19
16580;BME280;8402;51.466;6.806;2022-07-29T02:33:50;101187.84;;;21.37;48.13
16580;BME280;8402;51.466;6.806;2022-07-29T02:36:21;101197.25;;;21.32;48.19
16580;BME280;8402;51.466;6.806;2022-07-29T02:38:50;101215.41;;;21.33;48.25
16580;BME280;8402;51.466;6.806;2022-07-29T02:41:22;101235.94;;;21.36;48.12
16580;BME280;8402;51.466;6.806;2022-07-29T02:43:54;101241.44;;;21.36;48.37
16580;BME280;8402;51.466;6.806;2022-07-29T02:46:29;101229.09;;;21.26;48.89
16580;BME280;8402;51.466;6.806;2022-07-29T02:49:05;101211.22;;;21.16;48.66
16580;BME280;8402;51.466;6.806;2022-07-29T02:51:41;101207.94;;;21.07;48.71
16580;BME280;8402;51.466;6.806;2022-07-29T02:54:24;101224.47;;;21.04;48.73
16580;BME280;8402;51.466;6.806;2022-07-29T02:56:55;101241.81;;;21.04;49.03
16580;BME280;8402;51.466;6.806;2022-07-29T02:59:27;101244.56;;;21.04;49.52
16580;BME280;8402;51.466;6.806;2022-07-29T03:02:00;101241.81;;;21.04;50.28
16580;BME280;8402;51.466;6.806;2022-07-29T03:04:30;101233.84;;;20.99;49.87
16580;BME280;8402;51.466;6.806;2022-07-29T03:07:00;101244.78;;;20.92;50.72
16580;BME280;8402;51.466;6.806;2022-07-29T03:09:29;101242.28;;;20.83;51.69
16580;BME280;8402;51.466;6.806;2022-07-29T03:11:57;101244.56;;;20.78;51.91
16580;BME280;8402;51.466;6.806;2022-07-29T03:14:26;101233.13;;;20.76;52.85
16580;BME280;8402;51.466;6.806;2022-07-29T03:16:55;101228.66;;;20.68;53.29
16580;BME280;8402;51.466;6.806;2022-07-29T03:19:24;101234.19;;;20.68;53.58
16580;BME280;8402;51.466;6.806;2022-07-29T03:21:56;101240.44;;;20.65;53.48
16580;BME280;8402;51.466;6.806;2022-07-29T03:24:26;101243.50;;;20.59;53.61
16580;BME280;8402;51.466;6.806;2022-07-29T03:26:54;101233.09;;;20.49;53.82
16580;BME280;8402;51.466;6.806;2022-07-29T03:29:22;101230.66;;;20.44;53.86
16580;BME280;8402;51.466;6.806;2022-07-29T03:31:58;101233.69;;;20.39;54.37
16580;BME280;8402;51.466;6.806;2022-07-29T03:34:29;101248.22;;;20.36;54.76
16580;BME280;8402;51.466;6.806;2022-07-29T03:36:58;101239.09;;;20.32;54.65
16580;BME280;8402;51.466;6.806;2022-07-29T03:39:29;101239.84;;;20.29;55.34
16580;BME280;8402;51.466;6.806;2022-07-29T03:41:59;101251.56;;;20.26;55.21
16580;BME280;8402;51.466;6.806;2022-07-29T03:44:28;101258.94;;;20.18;55.68
16580;BME280;8402;51.466;6.806;2022-07-29T03:46:59;101259.34;;;20.20;55.86
16580;BME280;8402;51.466;6.806;2022-07-29T03:49:30;101254.63;;;20.21;55.93
16580;BME280;8402;51.466;6.806;2022-07-29T03:52:00;101268.28;;;20.14;56.00
16580;BME280;8402;51.466;6.806;2022-07-29T03:54:28;101285.19;;;20.12;56.24
16580;BME280;8402;51.466;6.806;2022-07-29T03:56:58;101304.09;;;20.14;56.89
16580;BME280;8402;51.466;6.806;2022-07-29T03:59:27;101324.50;;;20.09;56.59
16580;BME280;8402;51.466;6.806;2022-07-29T04:01:56;101334.25;;;20.06;56.78
16580;BME280;8402;51.466;6.806;2022-07-29T04:04:25;101320.50;;;20.06;57.01
16580;BME280;8402;51.466;6.806;2022-07-29T04:06:55;101306.91;;;19.94;57.23
16580;BME280;8402;51.466;6.806;2022-07-29T04:09:23;101308.34;;;19.88;56.83
16580;BME280;8402;51.466;6.806;2022-07-29T04:11:51;101317.16;;;19.78;57.10
16580;BME280;8402;51.466;6.806;2022-07-29T04:14:29;101307.63;;;19.72;57.24
16580;BME280;8402;51.466;6.806;2022-07-29T04:16:57;101290.22;;;19.68;58.33
16580;BME280;8402;51.466;6.806;2022-07-29T04:19:25;101275.59;;;19.64;57.50
16580;BME280;8402;51.466;6.806;2022-07-29T04:21:55;101277.91;;;19.62;57.73
16580;BME280;8402;51.466;6.806;2022-07-29T04:24:23;101277.13;;;19.61;57.58
16580;BME280;8402;51.466;6.806;2022-07-29T04:26:51;101269.91;;;19.57;58.69
16580;BME280;8402;51.466;6.806;2022-07-29T04:29:19;101274.31;;;19.58;59.10
16580;BME280;8402;51.466;6.806;2022-07-29T04:31:47;101285.19;;;19.54;59.30
16580;BME280;8402;51.466;6.806;2022-07-29T04:34:15;101284.16;;;19.59;59.91
16580;BME280;8402;51.466;6.806;2022-07-29T04:36:44;101268.31;;;19.56;60.41
16580;BME280;8402;51.466;6.806;2022-07-29T04:39:13;101266.31;;;19.52;61.16
16580;BME280;8402;51.466;6.806;2022-07-29T04:41:48;101260.38;;;19.50;61.54
16580;BME280;8402;51.466;6.806;2022-07-29T04:44:18;101246.16;;;19.48;61.39
16580;BME280;8402;51.466;6.806;2022-07-29T04:46:46;101237.19;;;19.51;61.34
16580;BME280;8402;51.466;6.806;2022-07-29T04:49:14;101241.69;;;19.60;61.50
16580;BME280;8402;51.466;6.806;2022-07-29T04:51:42;101240.09;;;19.59;62.24
16580;BME280;8402;51.466;6.806;2022-07-29T04:54:10;101240.09;;;19.59;62.64
16580;BME280;8402;51.466;6.806;2022-07-29T04:56:39;101224.38;;;19.59;62.38
16580;BME280;8402;51.466;6.806;2022-07-29T04:59:08;101228.38;;;19.62;61.91
16580;BME280;8402;51.466;6.806;2022-07-29T05:01:38;101226.03;;;19.64;61.06
16580;BME280;8402;51.466;6.806;2022-07-29T05:04:06;101227.66;;;19.65;61.30
16580;BME280;8402;51.466;6.806;2022-07-29T05:06:34;101236.06;;;19.72;61.08
16580;BME280;8402;51.466;6.806;2022-07-29T05:09:02;101249.81;;;19.72;61.17
16580;BME280;8402;51.466;6.806;2022-07-29T05:11:30;101243.94;;;19.73;60.89
16580;BME280;8402;51.466;6.806;2022-07-29T05:13:59;101268.41;;;19.78;61.00
16580;BME280;8402;51.466;6.806;2022-07-29T05:16:28;101274.00;;;19.82;60.72
16580;BME280;8402;51.466;6.806;2022-07-29T05:18:56;101272.13;;;19.86;60.68
16580;BME280;8402;51.466;6.806;2022-07-29T05:21:24;101260.72;;;19.88;60.58
16580;BME280;8402;51.466;6.806;2022-07-29T05:23:52;101260.81;;;19.72;60.58
16580;BME280;8402;51.466;6.806;2022-07-29T05:26:20;101260.69;;;19.65;61.28
16580;BME280;8402;51.466;6.806;2022-07-29T05:28:48;101262.13;;;19.59;61.93
16580;BME280;8402;51.466;6.806;2022-07-29T05:31:18;101266.72;;;19.55;61.73
16580;BME280;8402;51.466;6.806;2022-07-29T05:33:46;101269.22;;;19.60;61.74
16580;BME280;8402;51.466;6.806;2022-07-29T05:36:14;101273.28;;;19.66;61.44
16580;BME280;8402;51.466;6.806;2022-07-29T05:38:42;101268.63;;;19.70;61.51
16580;BME280;8402;51.466;6.806;2022-07-29T05:41:10;101262.28;;;19.66;61.57
16580;BME280;8402;51.466;6.806;2022-07-29T05:43:38;101247.34;;;19.67;61.37
16580;BME280;8402;51.466;6.806;2022-07-29T05:46:06;101240.25;;;19.66;61.70
16580;BME280;8402;51.466;6.806;2022-07-29T05:48:36;101223.59;;;19.59;62.38
16580;BME280;8402;51.466;6.806;2022-07-29T05:51:04;101213.63;;;19.54;62.56
16580;BME280;8402;51.466;6.806;2022-07-29T05:53:32;101213.06;;;19.45;62.64
16580;BME280;8402;51.466;6.806;2022-07-29T05:56:03;101222.91;;;19.46;63.37
16580;BME280;8402;51.466;6.806;2022-07-29T05:58:32;101248.47;;;19.46;62.88
16580;BME280;8402;51.466;6.806;2022-07-29T06:01:00;101249.34;;;19.50;62.76
16580;BME280;8402;51.466;6.806;2022-07-29T06:03:28;101257.66;;;19.54;62.78
16580;BME280;8402;51.466;6.806;2022-07-29T06:05:58;101248.19;;;19.51;63.31
16580;BME280;8402;51.466;6.806;2022-07-29T06:08:26;101246.47;;;19.43;63.98
16580;BME280;8402;51.466;6.806;2022-07-29T06:10:54;101237.91;;;19.29;65.37
16580;BME280;8402;51.466;6.806;2022-07-29T06:13:22;101239.34;;;19.23;65.73
16580;BME280;8402;51.466;6.806;2022-07-29T06:15:50;101236.28;;;19.28;65.94
16580;BME280;8402;51.466;6.806;2022-07-29T06:18:18;101241.16;;;19.35;65.78
16580;BME280;8402;51.466;6.806;2022-07-29T06:20:47;101237.03;;;19.44;66.12
16580;BME280;8402;51.466;6.806;2022-07-29T06:23:16;101239.84;;;19.48;66.23
16580;BME280;8402;51.466;6.806;2022-07-29T06:25:45;101232.09;;;19.53;66.36
16580;BME280;8402;51.466;6.806;2022-07-29T06:28:12;101227.50;;;19.58;65.76
16580;BME280;8402;51.466;6.806;2022-07-29T06:30:40;101222.00;;;19.58;65.61
16580;BME280;8402;51.466;6.806;2022-07-29T06:33:09;101226.34;;;19.59;66.08
16580;BME280;8402;51.466;6.806;2022-07-29T06:35:37;101228.38;;;19.62;66.03
16580;BME280;8402;51.466;6.806;2022-07-29T06:38:08;101234.75;;;19.66;66.39
16580;BME280;8402;51.466;6.806;2022-07-29T06:40:58;101236.38;;;19.70;66.60
16580;BME280;8402;51.466;6.806;2022-07-29T06:43:32;101242.53;;;19.83;66.44
16580;BME280;8402;51.466;6.806;2022-07-29T06:46:18;101255.66;;;19.90;65.84
16580;BME280;8402;51.466;6.806;2022-07-29T06:48:47;101261.25;;;19.93;65.58
16580;BME280;8402;51.466;6.806;2022-07-29T06:51:15;101257.91;;;19.84;65.65
16580;BME280;8402;51.466;6.806;2022-07-29T06:53:49;101261.81;;;19.83;65.96
16580;BME280;8402;51.466;6.806;2022-07-29T06:56:30;101267.47;;;19.90;65.95
16580;BME280;8402;51.466;6.806;2022-07-29T06:59:05;101271.94;;;19.98;65.67
16580;BME280;8402;51.466;6.806;2022-07-29T07:01:35;101278.25;;;19.99;65.34
16580;BME280;8402;51.466;6.806;2022-07-29T07:04:03;101285.00;;;20.01;65.30
16580;BME280;8402;51.466;6.806;2022-07-29T07:06:31;101298.91;;;20.09;65.09
16580;BME280;8402;51.466;6.806;2022-07-29T07:08:59;101316.72;;;20.15;64.78
16580;BME280;8402;51.466;6.806;2022-07-29T07:11:27;101323.47;;;20.17;64.80
16580;BME280;8402;51.466;6.806;2022-07-29T07:13:56;101330.84;;;20.13;65.50
16580;BME280;8402;51.466;6.806;2022-07-29T07:16:29;101331.97;;;20.09;65.54
16580;BME280;8402;51.466;6.806;2022-07-29T07:18:58;101339.44;;;20.08;65.50
16580;BME280;8402;51.466;6.806;2022-07-29T07:21:26;101332.25;;;20.03;65.65
16580;BME280;8402;51.466;6.806;2022-07-29T07:23:57;101327.47;;;20.00;65.55
16580;BME280;8402;51.466;6.806;2022-07-29T07:26:25;101329.88;;;20.02;65.39
16580;BME280;8402;51.466;6.806;2022-07-29T07:28:53;101326.75;;;20.03;65.71
16580;BME280;8402;51.466;6.806;2022-07-29T07:31:22;101330.72;;;20.06;65.57
16580;BME280;8402;51.466;6.806;2022-07-29T07:33:51;101346.44;;;20.05;65.62
16580;BME280;8402;51.466;6.806;2022-07-29T07:36:20;101344.16;;;20.08;65.78
16580;BME280;8402;51.466;6.806;2022-07-29T07:38:48;101335.56;;;20.13;65.76
16580;BME280;8402;51.466;6.806;2022-07-29T07:41:16;101333.31;;;20.18;65.40
16580;BME280;8402;51.466;6.806;2022-07-29T07:43:45;101338.16;;;20.25;64.87
16580;BME280;8402;51.466;6.806;2022-07-29T07:46:13;101332.66;;;20.25;65.53
16580;BME280;8402;51.466;6.806;2022-07-29T07:48:42;101338.22;;;20.28;64.93
16580;BME280;8402;51.466;6.806;2022-07-29T07:51:11;101335.47;;;20.28;64.69
16580;BME280;8402;51.466;6.806;2022-07-29T07:53:39;101337.44;;;20.28;64.99
16580;BME280;8402;51.466;6.806;2022-07-29T07:56:07;101335.91;;;20.30;65.14
16580;BME280;8402;51.466;6.806;2022-07-29T07:58:37;101331.13;;;20.27;64.60
16580;BME280;8402;51.466;6.806;2022-07-29T08:01:06;101323.84;;;20.16;65.61
16580;BME280;8402;51.466;6.806;2022-07-29T08:03:35;101333.97;;;20.12;67.25
16580;BME280;8402;51.466;6.806;2022-07-29T08:06:05;101334.78;;;20.12;67.23
16580;BME280;8402;51.466;6.806;2022-07-29T08:08:33;101330.94;;;20.17;67.18
16580;BME280;8402;51.466;6.806;2022-07-29T08:11:01;101334.25;;;20.26;66.63
16580;BME280;8402;51.466;6.806;2022-07-29T08:13:36;101326.41;;;20.28;66.90
16580;BME280;8402;51.466;6.806;2022-07-29T08:16:04;101331.91;;;20.28;67.35
16580;BME280;8402;51.466;6.806;2022-07-29T08:18:40;101333.22;;;20.34;67.20
16580;BME280;8402;51.466;6.806;2022-07-29T08:21:10;101339.31;;;20.43;66.81
16580;BME280;8402;51.466;6.806;2022-07-29T08:23:41;101337.00;;;20.45;66.78
16580;BME280;8402;51.466;6.806;2022-07-29T08:26:24;101328.44;;;20.50;66.87
16580;BME280;8402;51.466;6.806;2022-07-29T08:28:52;101326.53;;;20.54;67.26
16580;BME280;8402;51.466;6.806;2022-07-29T08:31:21;101326.09;;;20.52;67.51
16580;BME280;8402;51.466;6.806;2022-07-29T08:33:49;101321.00;;;20.54;67.58
16580;BME280;8402;51.466;6.806;2022-07-29T08:36:18;101320.59;;;20.52;67.76
16580;BME280;8402;51.466;6.806;2022-07-29T08:38:48;101319.78;;;20.52;67.64
16580;BME280;8402;51.466;6.806;2022-07-29T08:41:17;101315.78;;;20.49;67.91
16580;BME280;8402;51.466;6.806;2022-07-29T08:43:45;101317.25;;;20.43;68.85
16580;BME280;8402;51.466;6.806;2022-07-29T08:46:13;101317.97;;;20.40;69.41
16580;BME280;8402;51.466;6.806;2022-07-29T08:48:42;101315.63;;;20.42;69.47
16580;BME280;8402;51.466;6.806;2022-07-29T08:51:14;101319.72;;;20.48;70.08
16580;BME280;8402;51.466;6.806;2022-07-29T08:53:45;101330.88;;;20.55;69.49
16580;BME280;8402;51.466;6.806;2022-07-29T08:56:15;101325.06;;;20.60;69.48
16580;BME280;8402;51.466;6.806;2022-07-29T08:58:45;101325.53;;;20.66;69.45
16580;BME280;8402;51.466;6.806;2022-07-29T09:01:23;101324.88;;;20.73;68.81
16580;BME280;8402;51.466;6.806;2022-07-29T09:04:03;101322.53;;;20.75;68.83
16580;BME280;8402;51.466;6.806;2022-07-29T09:06:34;101318.19;;;20.74;68.72
16580;BME280;8402;51.466;6.806;2022-07-29T09:09:07;101317.78;;;20.72;69.12
16580;BME280;8402;51.466;6.806;2022-07-29T09:11:35;101320.94;;;20.74;68.87
16580;BME280;8402;51.466;6.806;2022-07-29T09:14:03;101324.13;;;20.76;68.70
16580;BME280;8402;51.466;6.806;2022-07-29T09:16:51;101324.91;;;20.76;69.74
16580;BME280;8402;51.466;6.806;2022-07-29T09:19:22;101320.28;;;20.80;69.24
16580;BME280;8402;51.466;6.806;2022-07-29T09:21:50;101322.56;;;20.78;68.81
16580;BME280;8402;51.466;6.806;2022-07-29T09:24:44;101325.28;;;20.75;68.56
16580;BME280;8402;51.466;6.806;2022-07-29T09:27:21;101332.03;;;20.77;68.38
16580;BME280;8402;51.466;6.806;2022-07-29T09:30:00;101329.34;;;20.81;68.31
16580;BME280;8402;51.466;6.806;2022-07-29T09:32:29;101322.66;;;20.82;67.69
16580;BME280;8402;51.466;6.806;2022-07-29T09:35:21;101319.50;;;20.83;68.59
16580;BME280;8402;51.466;6.806;2022-07-29T09:37:50;101315.38;;;20.97;68.24
16580;BME280;8402;51.466;6.806;2022-07-29T09:40:21;101300.06;;;20.99;68.05
16580;BME280;8402;51.466;6.806;2022-07-29T09:42:50;101293.81;;;21.02;67.99
16580;BME280;8402;51.466;6.806;2022-07-29T09:45:29;101287.44;;;20.98;70.42
16580;BME280;8402;51.466;6.806;2022-07-29T09:47:59;101285.19;;;21.07;69.09
16580;BME280;8402;51.466;6.806;2022-07-29T09:50:37;101286.91;;;21.15;69.55
16580;BME280;8402;51.466;6.806;2022-07-29T09:53:05;101291.88;;;21.29;69.17
16580;BME280;8402;51.466;6.806;2022-07-29T09:55:48;101294.34;;;21.38;69.40
16580;BME280;8402;51.466;6.806;2022-07-29T09:58:18;101285.72;;;21.43;68.89
16580;BME280;8402;51.466;6.806;2022-07-29T10:00:47;101294.84;;;21.47;68.74
16580;BME280;8402;51.466;6.806;2022-07-29T10:03:16;101304.81;;;21.55;68.24
16580;BME280;8402;51.466;6.806;2022-07-29T10:05:45;101297.78;;;21.61;68.02
16580;BME280;8402;51.466;6.806;2022-07-29T10:08:13;101293.13;;;21.65;67.34
16580;BME280;8402;51.466;6.806;2022-07-29T10:10:42;101294.66;;;21.63;66.72
16580;BME280;8402;51.466;6.806;2022-07-29T10:13:13;101298.09;;;21.56;66.87
16580;BME280;8402;51.466;6.806;2022-07-29T10:15:43;101295.34;;;21.56;67.43
16580;BME280;8402;51.466;6.806;2022-07-29T10:18:14;101294.56;;;21.56;67.83
16580;BME280;8402;51.466;6.806;2022-07-29T10:20:44;101289.81;;;21.56;68.21
16580;BME280;8402;51.466;6.806;2022-07-29T10:23:12;101290.59;;;21.53;68.57
16580;BME280;8402;51.466;6.806;2022-07-29T10:25:40;101277.91;;;21.49;68.79
16580;BME280;8402;51.466;6.806;2022-07-29T10:28:13;101284.19;;;21.46;68.90
16580;BME280;8402;51.466;6.806;2022-07-29T10:30:43;101285.00;;;21.50;68.37
16580;BME280;8402;51.466;6.806;2022-07-29T10:33:24;101282.63;;;21.48;67.76
16580;BME280;8402;51.466;6.806;2022-07-29T10:36:04;101286.56;;;21.47;66.74
16580;BME280;8402;51.466;6.806;2022-07-29T10:38:51;101293.47;;;21.64;66.63
16580;BME280;8402;51.466;6.806;2022-07-29T10:41:43;101296.03;;;21.80;65.69
16580;BME280;8402;51.466;6.806;2022-07-29T10:44:18;101296.09;;;22.20;65.83
16580;BME280;8402;51.466;6.806;2022-07-29T10:46:49;101301.28;;;22.66;65.24
16580;BME280;8402;51.466;6.806;2022-07-29T10:49:19;101292.84;;;23.00;63.29
16580;BME280;8402;51.466;6.806;2022-07-29T10:51:54;101297.31;;;23.19;62.41
16580;BME280;8402;51.466;6.806;2022-07-29T10:54:44;101293.00;;;23.28;60.68
16580;BME280;8402;51.466;6.806;2022-07-29T10:57:22;101309.00;;;23.60;61.85
16580;BME280;8402;51.466;6.806;2022-07-29T11:00:30;101304.41;;;23.96;60.04
16580;BME280;8402;51.466;6.806;2022-07-29T11:02:58;101303.66;;;24.21;59.10
16580;BME280;8402;51.466;6.806;2022-07-29T11:05:55;101307.69;;;24.52;58.98
16580;BME280;8402;51.466;6.806;2022-07-29T11:08:25;101297.78;;;24.72;58.58
16580;BME280;8402;51.466;6.806;2022-07-29T11:14:13;101299.69;;;25.32;56.27
16580;BME280;8402;51.466;6.806;2022-07-29T11:17:03;101293.25;;;25.57;56.70
16580;BME280;8402;51.466;6.806;2022-07-29T11:19:33;101287.19;;;25.83;55.07
16580;BME280;8402;51.466;6.806;2022-07-29T11:22:08;101297.81;;;26.02;54.35
16580;BME280;8402;51.466;6.806;2022-07-29T11:24:36;101300.91;;;26.15;52.12
16580;BME280;8402;51.466;6.806;2022-07-29T11:27:16;101306.38;;;26.29;52.31
16580;BME280;8402;51.466;6.806;2022-07-29T11:29:58;101298.28;;;26.53;50.30
16580;BME280;8402;51.466;6.806;2022-07-29T11:32:38;101300.03;;;26.81;50.63
16580;BME280;8402;51.466;6.806;2022-07-29T11:35:14;101292.88;;;26.80;48.46
16580;BME280;8402;51.466;6.806;2022-07-29T11:37:45;101300.47;;;26.76;50.81
16580;BME280;8402;51.466;6.806;2022-07-29T11:40:23;101292.19;;;26.69;49.88
16580;BME280;8402;51.466;6.806;2022-07-29T11:42:51;101296.34;;;26.91;50.10
16580;BME280;8402;51.466;6.806;2022-07-29T11:45:46;101292.88;;;27.21;48.71
16580;BME280;8402;51.466;6.806;2022-07-29T11:48:18;101301.63;;;27.23;48.04
16580;BME280;8402;51.466;6.806;2022-07-29T11:50:56;101297.00;;;27.09;46.69
16580;BME280;8402;51.466;6.806;2022-07-29T11:53:24;101302.56;;;27.09;48.46
16580;BME280;8402;51.466;6.806;2022-07-29T11:55:58;101292.22;;;27.06;48.26
16580;BME280;8402;51.466;6.806;2022-07-29T11:58:29;101303.72;;;27.12;48.15
16580;BME280;8402;51.466;6.806;2022-07-29T12:00:59;101301.34;;;27.10;47.04
16580;BME280;8402;51.466;6.806;2022-07-29T12:03:32;101309.38;;;27.05;48.16
16580;BME280;8402;51.466;6.806;2022-07-29T12:06:04;101311.38;;;27.04;48.39
16580;BME280;8402;51.466;6.806;2022-07-29T12:08:40;101307.38;;;27.02;49.30
16580;BME280;8402;51.466;6.806;2022-07-29T12:11:15;101306.56;;;27.08;48.25
16580;BME280;8402;51.466;6.806;2022-07-29T12:13:48;101296.84;;;27.24;48.82
16580;BME280;8402;51.466;6.806;2022-07-29T12:16:16;101299.22;;;27.22;48.63
16580;BME280;8402;51.466;6.806;2022-07-29T12:18:57;101302.00;;;27.22;49.26
16580;BME280;8402;51.466;6.806;2022-07-29T12:21:27;101301.72;;;27.12;49.96
16580;BME280;8402;51.466;6.806;2022-07-29T12:23:56;101308.19;;;27.02;50.06
16580;BME280;8402;51.466;6.806;2022-07-29T12:26:35;101301.88;;;26.95;50.08
16580;BME280;8402;51.466;6.806;2022-07-29T12:29:06;101306.28;;;26.92;50.06
16580;BME280;8402;51.466;6.806;2022-07-29T12:31:41;101308.31;;;26.88;49.92
16580;BME280;8402;51.466;6.806;2022-07-29T12:34:26;101311.59;;;26.76;49.96
16580;BME280;8402;51.466;6.806;2022-07-29T12:36:56;101320.84;;;26.66;50.31
16580;BME280;8402;51.466;6.806;2022-07-29T12:39:24;101311.78;;;26.54;50.41
16580;BME280;8402;51.466;6.806;2022-07-29T12:41:54;101313.41;;;26.52;50.73
16580;BME280;8402;51.466;6.806;2022-07-29T12:44:43;101313.47;;;26.45;51.49
16580;BME280;8402;51.466;6.806;2022-07-29T12:47:11;101311.81;;;26.51;51.52
16580;BME280;8402;51.466;6.806;2022-07-29T12:49:41;101312.19;;;26.53;51.40
16580;BME280;8402;51.466;6.806;2022-07-29T12:52:26;101310.22;;;26.53;50.67
16580;BME280;8402;51.466;6.806;2022-07-29T12:54:54;101311.72;;;26.65;51.14
16580;BME280;8402;51.466;6.806;2022-07-29T12:57:23;101316.75;;;26.77;51.05
16580;BME280;8402;51.466;6.806;2022-07-29T13:00:05;101312.38;;;26.80;50.32
16580;BME280;8402;51.466;6.806;2022-07-29T13:02:37;101311.09;;;26.88;50.05
16580;BME280;8402;51.466;6.806;2022-07-29T13:05:08;101312.25;;;26.94;49.88
16580;BME280;8402;51.466;6.806;2022-07-29T13:07:37;101312.16;;;27.01;49.49
16580;BME280;8402;51.466;6.806;2022-07-29T13:10:22;101314.50;;;27.06;49.17
16580;BME280;8402;51.466;6.806;2022-07-29T13:13:07;101313.75;;;27.02;49.78
16580;BME280;8402;51.466;6.806;2022-07-29T13:15:37;101303.69;;;27.15;49.85
16580;BME280;8402;51.466;6.806;2022-07-29T13:18:26;101310.53;;;27.07;48.71
16580;BME280;8402;51.466;6.806;2022-07-29T13:20:56;101315.72;;;27.05;49.06
16580;BME280;8402;51.466;6.806;2022-07-29T13:23:24;101314.97;;;27.01;48.26
16580;BME280;8402;51.466;6.806;2022-07-29T13:25:52;101319.38;;;26.95;48.98
16580;BME280;8402;51.466;6.806;2022-07-29T13:28:20;101316.22;;;26.93;49.43